Time;durP1;ratioP1;P1;durP2;ratioP2;P2;SDS_P1;SDS_P2;PMS_P1;PMS_P2;Temp;Humidity;BMP_temperature;BMP_pressure;BME280_temperature;BME280_humidity;BME280_pressure;Samples;Min_cycle;Max_cycle;Signal;HPM_P1;HPM_P2
2022/03/20 00:01:16;;;;;;;3.75;1.83;;;7.70;99.90;;;;;;5074918;28;20254;-77
2022/03/20 00:03:42;;;;;;;7.13;1.73;;;7.80;99.90;;;;;;5074403;28;20683;-81
2022/03/20 00:06:07;;;;;;;2.63;1.85;;;7.80;99.90;;;;;;5073923;28;20682;-83
2022/03/20 00:08:33;;;;;;;2.70;1.80;;;7.80;99.90;;;;;;5074032;28;20619;-84
2022/03/20 00:11:01;;;;;;;4.15;1.83;;;7.80;99.90;;;;;;5073872;28;20255;-83
2022/03/20 00:13:28;;;;;;;2.15;1.67;;;7.60;99.90;;;;;;5055984;28;20159;-85
2022/03/20 00:15:55;;;;;;;3.17;1.95;;;7.50;99.90;;;;;;5073565;28;20168;-84
2022/03/20 00:18:23;;;;;;;4.40;2.13;;;7.40;99.90;;;;;;5076188;28;20200;-82
2022/03/20 00:20:55;;;;;;;5.90;2.53;;;7.50;99.90;;;;;;5079964;28;20195;-82
2022/03/20 00:23:23;;;;;;;3.47;2.67;;;7.60;99.90;;;;;;5081040;28;20169;-80
2022/03/20 00:25:50;;;;;;;4.88;2.30;;;7.60;99.90;;;;;;5078549;28;20197;-79
2022/03/20 00:28:18;;;;;;;6.18;2.25;;;7.50;99.90;;;;;;5078378;28;20167;-83
2022/03/20 00:30:45;;;;;;;3.92;3.08;;;7.50;99.90;;;;;;5078249;28;20159;-85
2022/03/20 00:33:10;;;;;;;4.70;2.80;;;7.60;99.90;;;;;;5075884;28;20212;-80
2022/03/20 00:35:36;;;;;;;7.82;3.25;;;7.50;99.90;;;;;;5058411;28;20245;-85
2022/03/20 00:38:02;;;;;;;6.22;2.80;;;7.50;99.90;;;;;;5076090;28;20185;-85
2022/03/20 00:40:28;;;;;;;8.98;2.78;;;7.50;99.90;;;;;;5059127;28;20559;-80
2022/03/20 00:42:54;;;;;;;7.05;2.30;;;7.60;99.90;;;;;;5076769;28;20166;-81
2022/03/20 00:45:20;;;;;;;7.75;2.90;;;7.40;99.90;;;;;;5078117;28;20193;-83
2022/03/20 00:47:46;;;;;;;5.53;3.08;;;7.50;99.90;;;;;;5076242;28;20207;-81
2022/03/20 00:50:12;;;;;;;4.80;2.67;;;7.40;99.90;;;;;;5057844;28;20254;-81
2022/03/20 00:52:37;;;;;;;6.00;3.00;;;7.30;99.90;;;;;;5075988;28;20191;-83
2022/03/20 00:55:04;;;;;;;5.15;3.30;;;7.30;99.90;;;;;;5076807;28;20166;-78
2022/03/20 00:57:29;;;;;;;5.78;3.30;;;7.30;99.90;;;;;;5056138;28;20182;-83
2022/03/20 00:59:55;;;;;;;9.10;3.88;;;7.30;99.90;;;;;;5074924;28;20219;-78
2022/03/20 01:02:21;;;;;;;6.88;4.70;;;7.30;99.90;;;;;;5080956;28;20250;-78
2022/03/20 01:04:47;;;;;;;4.53;3.75;;;7.20;99.90;;;;;;5082934;28;20189;-78
2022/03/20 01:07:13;;;;;;;8.63;4.40;;;7.00;99.90;;;;;;5077920;28;20206;-77
2022/03/20 01:09:38;;;;;;;6.57;4.25;;;7.10;99.90;;;;;;5077578;28;20219;-85
2022/03/20 01:12:07;;;;;;;5.82;4.32;;;7.00;99.90;;;;;;5075799;28;20591;-81
2022/03/20 01:14:33;;;;;;;6.82;4.32;;;7.20;99.90;;;;;;5077740;28;20166;-79
2022/03/20 01:16:58;;;;;;;8.30;5.18;;;7.30;99.90;;;;;;5079469;28;20206;-84
2022/03/20 01:19:25;;;;;;;8.13;4.80;;;7.40;99.90;;;;;;5078423;28;20173;-80
2022/03/20 01:21:54;;;;;;;6.75;4.95;;;7.20;99.90;;;;;;5079525;28;20166;-81
2022/03/20 01:24:19;;;;;;;8.30;5.00;;;7.10;99.90;;;;;;5061959;28;20231;-84
2022/03/20 01:26:45;;;;;;;8.05;5.28;;;7.00;99.90;;;;;;5077442;28;20618;-78
2022/03/20 01:29:11;;;;;;;8.95;3.90;;;7.00;99.90;;;;;;5077104;28;20181;-78
2022/03/20 01:31:37;;;;;;;5.30;4.53;;;7.00;99.90;;;;;;5082963;28;20179;-79
2022/03/20 01:34:04;;;;;;;7.47;4.03;;;7.00;99.90;;;;;;5081773;28;20177;-83
2022/03/20 01:36:30;;;;;;;4.25;3.85;;;7.00;99.90;;;;;;5083463;28;20224;-81
2022/03/20 01:38:56;;;;;;;8.10;4.60;;;7.10;99.90;;;;;;5081027;28;20194;-79
2022/03/20 01:41:23;;;;;;;9.20;4.32;;;7.10;99.90;;;;;;5083637;28;20171;-81
2022/03/20 01:43:50;;;;;;;6.85;4.05;;;7.40;99.90;;;;;;5081991;28;20162;-78
2022/03/20 01:46:17;;;;;;;6.75;4.40;;;7.40;99.90;;;;;;5066262;28;20202;-78
2022/03/20 01:48:42;;;;;;;10.90;4.40;;;7.50;99.90;;;;;;5082216;28;20213;-78
2022/03/20 01:51:10;;;;;;;6.88;5.30;;;7.50;99.90;;;;;;5082041;28;20174;-79
2022/03/20 01:53:36;;;;;;;9.45;3.97;;;7.40;99.90;;;;;;5081631;28;20171;-82
2022/03/20 01:56:03;;;;;;;5.82;4.70;;;7.00;99.90;;;;;;5077871;28;20188;-82
2022/03/20 01:58:28;;;;;;;10.43;4.70;;;6.80;99.90;;;;;;5077479;28;20165;-80
2022/03/20 02:00:54;;;;;;;13.93;4.68;;;6.70;99.90;;;;;;5075251;28;20183;-84
2022/03/20 02:03:20;;;;;;;8.43;3.65;;;6.60;99.90;;;;;;5078036;28;20163;-83
2022/03/20 02:05:45;;;;;;;11.25;4.50;;;6.60;99.90;;;;;;5080455;28;20192;-79
2022/03/20 02:08:11;;;;;;;13.02;4.18;;;6.70;99.90;;;;;;5082965;28;20162;-79
2022/03/20 02:10:37;;;;;;;9.05;4.43;;;6.60;99.90;;;;;;5081402;28;20174;-79
2022/03/20 02:13:05;;;;;;;4.75;3.70;;;6.50;99.90;;;;;;5080818;28;20202;-81
2022/03/20 02:15:31;;;;;;;9.85;4.68;;;6.50;99.90;;;;;;5080280;28;20193;-85
2022/03/20 02:17:57;;;;;;;4.88;3.92;;;6.50;99.90;;;;;;5061177;28;20202;-82
2022/03/20 02:20:22;;;;;;;5.85;3.92;;;6.50;99.90;;;;;;5077495;28;20633;-81
2022/03/20 02:22:48;;;;;;;4.97;3.53;;;6.60;99.90;;;;;;5075191;28;20182;-82
2022/03/20 02:25:16;;;;;;;11.05;4.60;;;6.50;99.90;;;;;;5077067;28;20194;-78
2022/03/20 02:27:44;;;;;;;13.35;4.20;;;6.50;99.90;;;;;;5079766;28;20642;-79
2022/03/20 02:30:13;;;;;;;7.28;4.60;;;6.60;99.90;;;;;;5083425;28;20189;-80
2022/03/20 02:32:41;;;;;;;6.72;4.78;;;6.60;99.90;;;;;;5080633;28;20159;-79
2022/03/20 02:35:11;;;;;;;7.03;4.53;;;6.50;99.90;;;;;;5079949;28;20257;-85
2022/03/20 02:37:40;;;;;;;12.80;5.57;;;6.40;99.90;;;;;;5080282;28;20186;-85
2022/03/20 02:40:06;;;;;;;6.50;5.45;;;6.40;99.90;;;;;;5079012;28;20249;-81
2022/03/20 02:42:32;;;;;;;5.65;5.15;;;6.20;99.90;;;;;;5078678;28;20175;-79
2022/03/20 02:45:05;;;;;;;8.20;4.90;;;6.10;99.90;;;;;;5077872;28;20166;-80
2022/03/20 02:47:35;;;;;;;8.90;4.85;;;6.00;99.90;;;;;;5077909;28;20210;-79
2022/03/20 02:50:07;;;;;;;6.75;5.53;;;6.10;99.90;;;;;;5078157;28;20154;-78
2022/03/20 02:52:54;;;;;;;5.47;4.25;;;6.30;99.90;;;;;;5078827;28;20171;-84
2022/03/20 02:55:25;;;;;;;6.88;4.60;;;6.30;99.90;;;;;;5060954;28;20764;-83
2022/03/20 02:57:55;;;;;;;10.93;4.45;;;6.30;99.90;;;;;;5078320;28;20291;-81
2022/03/20 03:00:25;;;;;;;8.80;6.15;;;6.40;99.90;;;;;;5078491;28;20246;-86
2022/03/20 03:02:54;;;;;;;5.22;4.47;;;6.20;99.90;;;;;;5079302;28;20163;-84
2022/03/20 03:05:22;;;;;;;9.73;5.13;;;6.10;99.90;;;;;;5079043;28;20169;-81
2022/03/20 03:13:21;;;;;;;5.80;4.28;;;6.10;99.90;;;;;;5093821;28;20174;-84
2022/03/20 03:15:47;;;;;;;12.45;4.82;;;6.10;99.90;;;;;;5093067;28;20193;-79
2022/03/20 03:18:13;;;;;;;5.90;3.63;;;6.10;99.90;;;;;;5085485;28;20620;-78
2022/03/20 03:20:38;;;;;;;7.60;4.72;;;6.10;99.90;;;;;;5078514;28;20179;-78
2022/03/20 03:23:05;;;;;;;7.72;4.63;;;6.10;99.90;;;;;;5078260;28;20662;-78
2022/03/20 03:25:39;;;;;;;7.82;4.65;;;6.10;99.90;;;;;;5077658;28;20186;-85
2022/03/20 03:28:05;;;;;;;4.93;3.65;;;5.90;99.90;;;;;;5059155;28;20653;-79
2022/03/20 03:30:31;;;;;;;5.20;3.33;;;5.80;99.90;;;;;;5076651;28;20163;-82
2022/03/20 03:32:57;;;;;;;5.78;4.10;;;5.70;99.90;;;;;;5076010;28;20197;-79
2022/03/20 03:35:41;;;;;;;7.38;4.13;;;5.60;99.90;;;;;;5076363;28;20257;-82
2022/03/20 03:38:14;;;;;;;5.50;3.90;;;5.60;99.90;;;;;;5076297;28;20174;-82
2022/03/20 03:40:41;;;;;;;5.60;3.75;;;5.80;99.90;;;;;;5074425;28;20174;-82
2022/03/20 03:43:07;;;;;;;7.18;4.20;;;5.80;99.90;;;;;;5081832;28;20522;-81
2022/03/20 03:45:34;;;;;;;4.63;3.92;;;5.70;99.90;;;;;;5081845;28;20167;-79
2022/03/20 03:48:00;;;;;;;5.78;4.18;;;5.70;99.90;;;;;;5077083;28;20289;-81
2022/03/20 03:50:26;;;;;;;19.92;4.15;;;5.60;99.90;;;;;;5083013;28;20205;-79
2022/03/20 03:52:51;;;;;;;9.38;4.25;;;5.70;99.90;;;;;;5063096;28;20171;-82
2022/03/20 03:55:18;;;;;;;5.20;3.85;;;5.70;99.90;;;;;;5077864;28;20174;-79
2022/03/20 03:57:48;;;;;;;9.25;4.65;;;5.60;99.90;;;;;;5076976;28;20190;-78
2022/03/20 04:00:16;;;;;;;13.00;4.40;;;5.70;99.90;;;;;;5076915;28;20158;-80
2022/03/20 04:02:43;;;;;;;5.15;4.25;;;5.90;99.90;;;;;;5078018;28;20178;-79
2022/03/20 04:05:10;;;;;;;10.02;4.78;;;6.00;99.90;;;;;;5077960;28;20736;-80
2022/03/20 04:07:36;;;;;;;6.25;4.30;;;6.00;99.90;;;;;;5076877;28;20240;-78
2022/03/20 04:10:04;;;;;;;13.93;4.38;;;5.90;99.90;;;;;;5076977;28;20162;-78
2022/03/20 04:12:31;;;;;;;6.90;5.10;;;6.00;99.90;;;;;;5077618;28;20177;-79
2022/03/20 04:15:02;;;;;;;6.82;5.60;;;6.00;99.90;;;;;;5076758;28;20166;-79
2022/03/20 04:17:31;;;;;;;5.75;5.10;;;5.90;99.90;;;;;;5076808;28;20213;-82
2022/03/20 04:19:57;;;;;;;8.30;5.55;;;6.00;99.90;;;;;;5075873;28;20175;-79
2022/03/20 04:22:28;;;;;;;6.95;5.97;;;6.00;99.90;;;;;;5077581;28;20215;-84
2022/03/20 04:24:53;;;;;;;10.45;6.50;;;6.00;99.90;;;;;;5078727;28;20174;-79
2022/03/20 04:27:19;;;;;;;8.10;6.00;;;5.80;99.90;;;;;;5077774;28;20663;-81
2022/03/20 04:29:46;;;;;;;6.85;6.10;;;5.60;99.90;;;;;;5078130;28;20163;-78
2022/03/20 04:32:13;;;;;;;7.07;5.57;;;5.60;99.90;;;;;;5060440;28;20174;-84
2022/03/20 04:34:40;;;;;;;6.60;6.00;;;5.60;99.90;;;;;;5077735;28;20170;-80
2022/03/20 04:37:07;;;;;;;9.95;6.90;;;5.60;99.90;;;;;;5078841;28;20274;-82
2022/03/20 04:39:37;;;;;;;10.38;6.43;;;5.50;99.90;;;;;;5077191;28;20174;-82
2022/03/20 04:42:04;;;;;;;13.93;6.63;;;5.60;99.90;;;;;;5077337;28;20177;-83
2022/03/20 04:44:31;;;;;;;10.68;7.70;;;5.80;99.90;;;;;;5076381;28;20170;-78
2022/03/20 04:46:57;;;;;;;12.82;8.20;;;5.80;99.90;;;;;;5075624;28;20228;-81
2022/03/20 05:00:21;;;;;;;16.88;9.95;;;6.00;99.90;;;;;;5073668;28;20181;-80
2022/03/20 05:02:48;;;;;;;16.25;9.00;;;5.90;99.90;;;;;;5073338;28;20212;-80
2022/03/20 05:05:16;;;;;;;10.18;9.13;;;5.90;99.90;;;;;;5073835;28;20639;-83
2022/03/20 05:07:42;;;;;;;10.57;9.05;;;5.80;99.90;;;;;;5056061;28;20575;-79
2022/03/20 05:15:39;;;;;;;15.30;10.10;;;5.90;99.90;;;;;;5074695;28;20261;-79
2022/03/20 05:18:08;;;;;;;14.98;10.93;;;5.80;99.90;;;;;;5074404;28;20183;-85
2022/03/20 05:20:34;;;;;;;14.90;10.32;;;5.60;99.90;;;;;;5055513;28;20189;-83
2022/03/20 05:23:02;;;;;;;17.42;10.43;;;5.60;99.90;;;;;;5073874;28;20597;-80
2022/03/20 05:25:28;;;;;;;23.00;12.50;;;5.60;99.90;;;;;;5058588;28;20171;-81
2022/03/20 05:27:54;;;;;;;17.75;11.88;;;5.60;99.90;;;;;;5076248;28;20207;-80
2022/03/20 05:30:20;;;;;;;17.13;11.27;;;5.70;99.90;;;;;;5075390;28;20525;-82
2022/03/20 05:32:47;;;;;;;18.25;11.32;;;5.70;99.90;;;;;;5074142;28;20173;-79
2022/03/20 05:35:15;;;;;;;31.10;12.15;;;5.70;99.90;;;;;;5075042;28;20167;-79
2022/03/20 05:37:42;;;;;;;15.45;10.75;;;5.60;99.90;;;;;;5056224;28;20216;-78
2022/03/20 05:40:08;;;;;;;17.17;11.50;;;5.90;99.90;;;;;;5074305;28;20719;-84
2022/03/20 05:42:35;;;;;;;17.33;10.98;;;6.00;99.90;;;;;;5072720;28;20170;-85
2022/03/20 05:45:02;;;;;;;20.25;11.48;;;6.10;99.90;;;;;;5073156;28;20158;-83
2022/03/20 05:47:31;;;;;;;15.98;11.45;;;6.10;99.90;;;;;;5072769;28;20351;-80
2022/03/20 05:49:59;;;;;;;15.10;10.60;;;6.10;99.90;;;;;;5073313;28;20529;-85
2022/03/20 05:52:25;;;;;;;18.10;10.63;;;6.20;99.90;;;;;;5072759;28;20649;-79
2022/03/20 05:54:50;;;;;;;16.63;9.95;;;6.40;99.90;;;;;;5072902;28;20162;-79
2022/03/20 06:00:00;;;;;;;16.38;11.00;;;6.30;99.90;;;;;;5072925;28;20653;-84
2022/03/20 06:02:26;;;;;;;20.60;11.88;;;6.40;99.90;;;;;;5072829;28;20179;-82
2022/03/20 06:04:53;;;;;;;16.63;11.93;;;6.40;99.90;;;;;;5074917;28;20550;-83
2022/03/20 06:07:18;;;;;;;14.52;11.32;;;6.40;99.90;;;;;;5076674;28;20297;-83
2022/03/20 06:09:44;;;;;;;17.48;11.07;;;6.40;99.90;;;;;;5076689;28;20595;-78
2022/03/20 06:12:10;;;;;;;18.73;11.52;;;6.40;99.90;;;;;;5076937;28;20253;-84
2022/03/20 06:14:35;;;;;;;15.63;10.55;;;6.10;99.90;;;;;;5077087;28;20163;-85
2022/03/20 06:17:02;;;;;;;16.38;10.75;;;6.10;99.90;;;;;;5076518;28;20444;-78
2022/03/20 06:19:28;;;;;;;16.00;10.90;;;6.10;99.90;;;;;;5076110;28;20189;-85
2022/03/20 06:21:54;;;;;;;16.30;11.15;;;6.40;99.90;;;;;;5076352;28;20194;-84
2022/03/20 06:24:20;;;;;;;19.77;11.55;;;6.40;99.90;;;;;;5076596;28;20193;-79
2022/03/20 06:26:45;;;;;;;18.27;11.77;;;6.30;99.90;;;;;;5076410;28;20292;-80
2022/03/20 06:29:11;;;;;;;18.02;11.93;;;6.30;99.90;;;;;;5077372;28;20289;-82
2022/03/20 06:31:36;;;;;;;15.82;11.15;;;6.30;99.90;;;;;;5081022;28;20686;-80
2022/03/20 06:34:04;;;;;;;15.95;11.55;;;6.30;99.90;;;;;;5084140;28;20179;-79
2022/03/20 06:36:30;;;;;;;17.70;12.30;;;6.50;99.90;;;;;;5076129;28;20187;-79
2022/03/20 06:38:56;;;;;;;16.50;12.23;;;6.60;99.90;;;;;;5076037;28;20170;-84
2022/03/20 06:41:22;;;;;;;19.88;11.05;;;6.50;99.90;;;;;;5076035;28;20170;-81
2022/03/20 06:43:47;;;;;;;18.25;12.38;;;6.50;99.90;;;;;;5057910;28;20162;-84
2022/03/20 06:46:13;;;;;;;19.40;11.00;;;6.70;99.90;;;;;;5075586;28;20198;-79
2022/03/20 06:48:39;;;;;;;18.33;11.35;;;6.80;99.90;;;;;;5075955;28;20622;-79
2022/03/20 06:51:04;;;;;;;15.23;11.23;;;6.70;99.90;;;;;;5075907;28;20258;-78
2022/03/20 06:53:30;;;;;;;21.25;13.05;;;6.70;99.90;;;;;;5075510;28;20159;-81
2022/03/20 06:55:56;;;;;;;25.85;15.02;;;6.20;99.90;;;;;;5057785;28;20189;-84
2022/03/20 06:58:23;;;;;;;27.42;14.32;;;5.90;99.90;;;;;;5076044;28;20575;-79
2022/03/20 07:00:50;;;;;;;25.45;13.75;;;5.60;99.90;;;;;;5075985;28;20162;-81
2022/03/20 07:03:15;;;;;;;22.65;14.57;;;5.60;99.90;;;;;;5075245;28;20162;-77
2022/03/20 07:05:41;;;;;;;22.80;15.07;;;5.50;99.90;;;;;;5075391;28;20166;-81
2022/03/20 07:08:08;;;;;;;30.55;16.23;;;5.00;99.90;;;;;;5075611;28;20202;-80
2022/03/20 07:10:34;;;;;;;23.33;15.32;;;4.80;99.90;;;;;;5075826;28;20253;-84
2022/03/20 07:15:46;;;;;;;23.58;15.75;;;4.50;99.90;;;;;;5074620;28;20537;-77
2022/03/20 07:18:14;;;;;;;24.67;16.05;;;4.50;99.90;;;;;;5075566;28;20171;-78
2022/03/20 07:20:42;;;;;;;27.45;17.90;;;4.40;99.90;;;;;;5076105;28;20167;-78
2022/03/20 07:23:09;;;;;;;25.10;15.88;;;4.40;99.90;;;;;;5075432;28;20174;-82
2022/03/20 07:31:04;;;;;;;28.98;18.73;;;4.30;99.90;;;;;;5086309;28;20178;-85
2022/03/20 07:33:30;;;;;;;31.75;19.30;;;4.10;99.90;;;;;;5091258;28;20166;-82
2022/03/20 07:35:56;;;;;;;39.75;19.63;;;4.10;99.90;;;;;;5090903;28;20185;-86
2022/03/20 07:38:21;;;;;;;33.88;20.30;;;4.10;99.90;;;;;;5090276;28;20494;-85
2022/03/20 07:40:47;;;;;;;33.78;19.27;;;4.10;99.90;;;;;;5076992;28;20166;-77
2022/03/20 07:43:12;;;;;;;29.50;18.80;;;4.10;99.90;;;;;;5076137;28;20198;-75
2022/03/20 07:45:38;;;;;;;30.35;20.48;;;4.10;99.90;;;;;;5075318;28;20581;-81
2022/03/20 07:48:04;;;;;;;27.55;18.55;;;4.30;99.90;;;;;;5074637;28;20292;-81
2022/03/20 07:50:30;;;;;;;35.92;20.08;;;4.30;99.90;;;;;;5074759;28;20201;-76
2022/03/20 07:52:59;;;;;;;33.08;20.33;;;4.40;99.90;;;;;;5075027;28;20185;-76
2022/03/20 07:55:27;;;;;;;36.75;20.98;;;4.40;99.90;;;;;;5074458;28;20191;-80
2022/03/20 07:57:53;;;;;;;37.05;20.30;;;4.30;99.90;;;;;;5079358;28;20187;-79
2022/03/20 08:00:19;;;;;;;33.30;20.92;;;4.20;99.90;;;;;;5077499;28;20167;-77
2022/03/20 08:02:46;;;;;;;38.53;22.10;;;4.40;99.90;;;;;;5077462;28;20215;-81
2022/03/20 08:05:12;;;;;;;34.78;22.38;;;4.20;99.90;;;;;;5063167;28;20683;-80
2022/03/20 08:07:38;;;;;;;39.90;21.80;;;4.30;99.90;;;;;;5075269;28;20698;-82
2022/03/20 08:10:06;;;;;;;33.05;20.92;;;4.10;99.90;;;;;;5056908;28;20280;-86
2022/03/20 08:12:31;;;;;;;29.63;21.25;;;4.30;99.90;;;;;;5074639;28;20529;-80
2022/03/20 08:14:58;;;;;;;34.05;21.67;;;4.60;99.90;;;;;;5056225;28;20265;-84
2022/03/20 08:17:24;;;;;;;39.88;22.60;;;4.60;99.90;;;;;;5075034;28;20289;-76
2022/03/20 08:19:49;;;;;;;39.33;21.58;;;4.60;99.90;;;;;;5074527;28;20205;-81
2022/03/20 08:22:15;;;;;;;30.40;20.08;;;4.90;99.90;;;;;;5073889;28;20174;-85
2022/03/20 08:24:42;;;;;;;40.53;20.67;;;5.00;99.90;;;;;;5075218;28;20162;-80
2022/03/20 08:27:07;;;;;;;34.72;22.17;;;5.10;99.90;;;;;;5055632;28;20214;-80
2022/03/20 08:29:33;;;;;;;31.50;20.45;;;5.00;99.90;;;;;;5074508;28;20158;-78
2022/03/20 08:31:59;;;;;;;35.60;20.40;;;5.10;99.90;;;;;;5074584;28;20263;-85
2022/03/20 08:34:25;;;;;;;32.40;19.33;;;5.60;99.90;;;;;;5074773;28;20158;-83
2022/03/20 08:36:50;;;;;;;45.00;21.52;;;5.90;99.90;;;;;;5055724;28;20196;-84
2022/03/20 08:39:16;;;;;;;30.40;19.35;;;5.90;99.90;;;;;;5072694;28;20611;-82
2022/03/20 08:41:43;;;;;;;28.17;18.90;;;5.80;99.90;;;;;;5073146;28;20232;-79
2022/03/20 08:44:09;;;;;;;28.38;18.95;;;5.70;99.90;;;;;;5055014;28;20180;-83
2022/03/20 08:46:36;;;;;;;26.85;18.92;;;5.70;99.90;;;;;;5073220;28;20255;-79
2022/03/20 08:49:06;;;;;;;32.67;21.08;;;6.10;99.90;;;;;;5070657;28;20166;-80
2022/03/20 08:51:33;;;;;;;29.40;19.25;;;6.10;99.90;;;;;;5067672;28;20170;-80
2022/03/20 08:53:59;;;;;;;35.22;19.73;;;6.00;99.90;;;;;;5072912;28;20179;-80
2022/03/20 08:56:25;;;;;;;29.63;18.73;;;6.20;99.90;;;;;;5077342;28;20190;-81
2022/03/20 08:58:51;;;;;;;36.35;19.77;;;6.30;99.90;;;;;;5078225;28;20169;-84
2022/03/20 09:01:17;;;;;;;30.02;20.58;;;6.40;99.90;;;;;;5060348;28;20167;-79
2022/03/20 09:03:44;;;;;;;30.40;19.17;;;6.40;99.90;;;;;;5077959;28;20619;-81
2022/03/20 09:06:09;;;;;;;31.23;20.80;;;6.40;99.90;;;;;;5076733;28;20193;-80
2022/03/20 09:08:36;;;;;;;29.42;19.38;;;6.90;99.90;;;;;;5078113;28;20162;-84
2022/03/20 09:11:03;;;;;;;30.80;20.00;;;6.80;99.90;;;;;;5059462;28;20265;-78
2022/03/20 09:13:29;;;;;;;29.20;18.55;;;7.00;99.90;;;;;;5078832;28;20170;-78
2022/03/20 09:21:23;;;;;;;30.80;19.98;;;7.80;99.90;;;;;;5080802;28;20204;-78
2022/03/20 09:23:49;;;;;;;32.40;19.45;;;7.80;99.90;;;;;;5081116;28;20182;-76
2022/03/20 09:26:15;;;;;;;34.90;19.50;;;7.40;99.90;;;;;;5081758;28;20275;-77
2022/03/20 09:28:41;;;;;;;29.02;18.48;;;7.10;99.90;;;;;;5062668;28;20236;-76
2022/03/20 09:31:08;;;;;;;27.58;19.23;;;7.00;99.90;;;;;;5081653;28;20162;-77
2022/03/20 09:33:34;;;;;;;32.42;19.20;;;6.80;99.90;;;;;;5062607;28;20174;-82
2022/03/20 09:36:00;;;;;;;30.58;19.52;;;6.90;99.90;;;;;;5079209;28;20269;-83
2022/03/20 09:38:26;;;;;;;31.70;18.77;;;7.10;99.90;;;;;;5061067;28;20201;-81
2022/03/20 09:40:52;;;;;;;34.30;20.38;;;7.20;99.90;;;;;;5077880;28;20227;-83
2022/03/20 09:43:18;;;;;;;30.67;19.65;;;7.30;99.90;;;;;;5077720;28;20170;-81
2022/03/20 09:45:44;;;;;;;28.52;18.80;;;7.40;99.90;;;;;;5077516;28;20170;-79
2022/03/20 09:48:12;;;;;;;25.15;18.10;;;7.40;99.90;;;;;;5078004;28;20210;-82
2022/03/20 09:50:39;;;;;;;29.30;18.00;;;7.40;99.90;;;;;;5058831;28;20200;-78
2022/03/20 09:53:05;;;;;;;35.47;18.98;;;7.20;99.90;;;;;;5077224;28;20177;-82
2022/03/20 09:55:31;;;;;;;30.23;19.33;;;7.20;99.90;;;;;;5076508;28;20218;-82
2022/03/20 09:57:58;;;;;;;27.30;18.05;;;7.10;99.90;;;;;;5057173;28;20189;-79
2022/03/20 10:00:24;;;;;;;30.33;20.02;;;7.10;99.90;;;;;;5076183;28;20197;-78
2022/03/20 10:02:51;;;;;;;30.33;18.80;;;7.30;99.90;;;;;;5076537;28;20158;-78
2022/03/20 10:05:21;;;;;;;34.33;19.98;;;7.50;99.90;;;;;;5076148;28;20184;-78
2022/03/20 10:07:46;;;;;;;27.35;19.25;;;7.50;99.90;;;;;;5076146;28;20255;-81
2022/03/20 10:10:23;;;;;;;31.88;20.60;;;7.60;99.90;;;;;;5076895;28;20159;-79
2022/03/20 10:12:53;;;;;;;29.75;20.75;;;7.70;99.90;;;;;;5061023;28;20181;-85
2022/03/20 10:15:31;;;;;;;39.83;21.50;;;7.90;99.90;;;;;;5077645;28;20163;-77
2022/03/20 10:18:17;;;;;;;33.95;20.70;;;7.80;99.90;;;;;;5058952;28;20715;-81
2022/03/20 10:20:51;;;;;;;31.25;20.30;;;8.00;99.90;;;;;;5078150;28;20193;-86
2022/03/20 10:23:39;;;;;;;26.92;18.42;;;8.20;99.90;;;;;;5078119;28;20166;-87
2022/03/20 10:26:19;;;;;;;35.55;20.77;;;8.40;99.90;;;;;;5077972;28;20224;-80
2022/03/20 10:28:48;;;;;;;34.55;21.52;;;8.20;99.90;;;;;;5079326;28;20171;-78
2022/03/20 10:31:18;;;;;;;34.53;20.42;;;8.20;99.90;;;;;;5060211;28;20230;-82
2022/03/20 10:33:46;;;;;;;29.08;19.90;;;8.30;99.90;;;;;;5077397;28;20174;-82
2022/03/20 10:36:15;;;;;;;34.42;20.60;;;8.20;99.90;;;;;;5080348;28;20192;-82
2022/03/20 10:38:43;;;;;;;55.85;30.90;;;8.40;99.90;;;;;;5060665;28;20666;-79
2022/03/20 10:41:32;;;;;;;35.70;20.77;;;8.30;99.90;;;;;;5077041;28;20253;-81
2022/03/20 10:43:59;;;;;;;33.53;21.42;;;8.60;99.90;;;;;;5058560;28;20231;-80
2022/03/20 10:46:25;;;;;;;30.15;20.30;;;8.90;99.90;;;;;;5076677;28;20198;-82
2022/03/20 10:48:56;;;;;;;27.25;19.10;;;8.70;99.90;;;;;;5076953;28;20277;-81
2022/03/20 10:51:37;;;;;;;33.10;20.17;;;8.80;99.90;;;;;;5077720;28;20653;-82
2022/03/20 10:54:11;;;;;;;32.72;19.83;;;9.00;99.90;;;;;;5081007;28;20174;-80
2022/03/20 10:56:51;;;;;;;27.50;18.67;;;9.00;99.90;;;;;;5080045;28;20179;-78
2022/03/20 10:59:17;;;;;;;28.38;19.00;;;8.80;99.90;;;;;;5080041;28;20170;-83
2022/03/20 11:01:47;;;;;;;32.65;21.83;;;8.70;99.90;;;;;;5079387;28;20167;-78
2022/03/20 11:04:14;;;;;;;29.27;19.67;;;8.80;99.90;;;;;;5079405;28;20174;-83
2022/03/20 11:06:45;;;;;;;28.98;19.92;;;8.90;99.90;;;;;;5081398;28;20209;-85
2022/03/20 11:09:11;;;;;;;32.75;20.15;;;9.00;99.90;;;;;;5063491;28;20194;-78
2022/03/20 11:11:58;;;;;;;33.50;19.15;;;9.30;99.90;;;;;;5064897;28;20172;-79
2022/03/20 11:14:26;;;;;;;32.55;20.40;;;9.20;99.90;;;;;;5082978;28;20667;-85
2022/03/20 11:17:09;;;;;;;29.88;19.08;;;9.40;99.90;;;;;;5065453;28;20228;-84
2022/03/20 11:19:37;;;;;;;37.03;19.15;;;9.60;99.90;;;;;;5060371;28;20166;-78
2022/03/20 11:22:09;;;;;;;31.52;21.38;;;10.00;99.90;;;;;;5075938;28;20198;-78
2022/03/20 11:24:36;;;;;;;30.88;20.25;;;10.20;99.90;;;;;;5075311;28;20224;-89
2022/03/20 11:27:04;;;;;;;28.77;18.35;;;10.50;99.90;;;;;;5075316;28;20202;-78
2022/03/20 11:29:42;;;;;;;26.05;18.70;;;10.50;99.90;;;;;;5057599;28;20170;-79
2022/03/20 11:32:08;;;;;;;26.92;19.83;;;10.70;99.90;;;;;;5075885;28;20166;-79
2022/03/20 11:34:35;;;;;;;29.48;19.05;;;10.90;99.90;;;;;;5076161;28;20174;-83
2022/03/20 11:37:11;;;;;;;30.60;20.08;;;11.10;99.90;;;;;;5078569;28;20187;-77
2022/03/20 11:39:58;;;;;;;25.95;18.10;;;11.20;99.90;;;;;;5086371;28;20233;-77
2022/03/20 11:42:28;;;;;;;29.90;18.98;;;11.20;99.90;;;;;;5043342;28;20721;-79
2022/03/20 11:44:59;;;;;;;30.15;19.63;;;11.20;99.90;;;;;;5075807;28;20254;-84
2022/03/20 11:47:30;;;;;;;28.27;19.38;;;11.30;99.90;;;;;;5078520;28;20258;-80
2022/03/20 11:50:24;;;;;;;28.13;19.50;;;11.40;99.90;;;;;;5077649;28;20215;-77
2022/03/20 11:52:57;;;;;;;28.48;19.88;;;11.50;99.90;;;;;;5071591;28;20262;-86
2022/03/20 11:55:32;;;;;;;25.67;18.30;;;11.40;99.90;;;;;;5092009;28;20177;-85
2022/03/20 11:58:21;;;;;;;27.13;19.63;;;11.20;99.90;;;;;;5072102;28;20286;-80
2022/03/20 12:01:06;;;;;;;34.63;18.75;;;11.20;99.90;;;;;;5070021;28;20246;-86
2022/03/20 12:03:55;;;;;;;27.60;19.00;;;11.30;99.90;;;;;;5040630;28;20182;-81
2022/03/20 12:06:47;;;;;;;33.58;21.58;;;11.20;99.90;;;;;;5056293;28;20209;-77
2022/03/20 12:09:43;;;;;;;34.90;20.23;;;11.40;99.90;;;;;;5054047;28;20183;-83
2022/03/20 12:12:18;;;;;;;27.17;20.88;;;11.50;99.90;;;;;;5054006;28;20168;-80
2022/03/20 12:14:53;;;;;;;27.85;20.10;;;11.80;99.90;;;;;;5074174;28;20234;-78
2022/03/20 12:17:19;;;;;;;39.88;20.40;;;11.90;99.90;;;;;;5069774;28;20202;-78
2022/03/20 12:19:53;;;;;;;35.42;19.73;;;12.00;99.90;;;;;;5054534;28;20165;-78
2022/03/20 12:22:19;;;;;;;28.42;20.77;;;11.50;99.90;;;;;;5054142;28;20164;-81
2022/03/20 12:24:51;;;;;;;32.60;20.70;;;11.50;99.90;;;;;;5036005;28;20183;-77
2022/03/20 12:27:22;;;;;;;28.38;20.90;;;11.60;99.90;;;;;;5053910;28;20203;-80
2022/03/20 12:29:48;;;;;;;28.35;20.33;;;11.80;99.90;;;;;;5054451;28;20155;-78
2022/03/20 12:32:15;;;;;;;34.83;21.35;;;11.90;99.90;;;;;;5054352;28;20195;-78
2022/03/20 12:34:56;;;;;;;28.77;20.05;;;11.80;99.90;;;;;;5056899;28;20163;-78
2022/03/20 12:37:27;;;;;;;25.20;17.90;;;11.70;99.90;;;;;;5055439;28;20187;-77
2022/03/20 12:39:55;;;;;;;31.35;19.35;;;11.90;99.90;;;;;;5053974;28;20655;-86
2022/03/20 12:42:24;;;;;;;29.10;20.13;;;11.70;99.90;;;;;;5060609;28;20178;-78
2022/03/20 12:44:53;;;;;;;31.73;18.95;;;11.70;99.90;;;;;;5076054;28;20687;-78
2022/03/20 12:47:21;;;;;;;26.58;19.40;;;11.90;99.90;;;;;;5060100;28;20702;-79
2022/03/20 12:49:51;;;;;;;31.45;21.38;;;11.90;99.90;;;;;;5073837;28;20171;-83
2022/03/20 12:52:18;;;;;;;36.70;21.17;;;12.10;99.90;;;;;;5078864;28;20185;-82
2022/03/20 12:55:21;;;;;;;28.10;19.48;;;12.00;99.90;;;;;;5069926;28;20162;-89
2022/03/20 12:57:52;;;;;;;25.40;19.35;;;12.10;99.90;;;;;;5054248;28;20206;-86
2022/03/20 13:00:38;;;;;;;29.52;20.00;;;11.90;99.90;;;;;;5072363;28;20177;-80
2022/03/20 13:03:11;;;;;;;37.13;20.65;;;11.90;99.90;;;;;;5064964;28;20225;-84
2022/03/20 13:05:51;;;;;;;28.33;20.05;;;11.80;99.90;;;;;;5071137;28;20170;-78
2022/03/20 13:08:31;;;;;;;30.20;20.77;;;11.80;99.90;;;;;;5066897;28;20222;-88
2022/03/20 13:14:05;;;;;;;31.08;20.40;;;11.50;99.90;;;;;;5059170;28;20544;-78
2022/03/20 13:16:33;;;;;;;34.15;21.35;;;11.40;99.90;;;;;;5074731;28;20233;-78
2022/03/20 13:18:59;;;;;;;37.17;22.73;;;11.30;99.90;;;;;;5071215;28;20214;-78
2022/03/20 13:21:25;;;;;;;31.48;20.92;;;11.20;99.90;;;;;;5062779;28;20627;-79
2022/03/20 13:23:52;;;;;;;38.10;23.20;;;11.20;99.90;;;;;;5071215;28;20211;-88
2022/03/20 13:26:19;;;;;;;35.75;21.42;;;11.20;99.90;;;;;;5067639;28;20192;-91
2022/03/20 13:28:47;;;;;;;31.60;21.88;;;11.40;99.90;;;;;;5068803;28;20647;-90
2022/03/20 13:31:16;;;;;;;29.20;20.85;;;11.20;99.90;;;;;;5062416;28;20174;-81